createdAt,value
2018-06-15T00:00:29.197Z,88.60
2018-06-15T00:03:02.830Z,88.60
2018-06-15T00:05:31.631Z,88.60
2018-06-15T00:08:00.044Z,88.40
2018-06-15T00:10:28.600Z,88.40
2018-06-15T00:12:57.257Z,88.30
2018-06-15T00:15:25.693Z,88.30
2018-06-15T00:17:54.414Z,88.20
2018-06-15T00:20:22.928Z,88.20
2018-06-15T00:22:51.353Z,88.20
2018-06-15T00:25:19.788Z,88.10
2018-06-15T00:27:48.193Z,88.10
2018-06-15T00:30:16.641Z,87.70
2018-06-15T00:32:45.070Z,87.70
2018-06-15T00:35:13.516Z,88.20
2018-06-15T00:37:41.953Z,88.10
2018-06-15T00:40:10.392Z,87.60
2018-06-15T00:42:38.809Z,87.60
2018-06-15T00:45:07.257Z,87.60
2018-06-15T00:47:35.679Z,88.00
2018-06-15T00:50:04.183Z,88.20
2018-06-15T00:52:32.693Z,88.50
2018-06-15T00:55:01.139Z,88.30
2018-06-15T01:00:17.311Z,88.50
2018-06-15T01:02:45.726Z,88.60
2018-06-15T01:05:14.181Z,88.70
2018-06-15T01:07:42.663Z,89.20
2018-06-15T01:10:11.123Z,89.10
2018-06-15T01:12:40.397Z,89.00
2018-06-15T01:15:08.831Z,88.80
2018-06-15T01:17:37.862Z,88.20
2018-06-15T01:20:06.328Z,88.20
2018-06-15T01:22:34.728Z,88.10
2018-06-15T01:25:03.180Z,88.50
2018-06-15T01:27:31.757Z,88.50
2018-06-15T01:30:00.168Z,88.30
2018-06-15T01:32:28.636Z,88.10
2018-06-15T01:34:57.065Z,88.00
2018-06-15T01:37:25.548Z,87.50
2018-06-15T01:39:53.953Z,87.10
2018-06-15T01:42:22.373Z,87.30
2018-06-15T01:44:50.790Z,87.30
2018-06-15T01:47:19.245Z,87.50
2018-06-15T01:49:47.744Z,87.40
2018-06-15T01:55:38.812Z,87.60
2018-06-15T01:58:07.229Z,87.70
2018-06-15T02:00:35.672Z,88.10
2018-06-15T02:03:04.133Z,87.30
2018-06-15T02:05:32.690Z,87.30
2018-06-15T02:08:01.121Z,87.50
2018-06-15T02:10:29.501Z,87.50
2018-06-15T02:12:57.961Z,87.50
2018-06-15T02:15:26.394Z,87.50
2018-06-15T02:17:54.822Z,86.70
2018-06-15T02:20:23.225Z,86.70
2018-06-15T02:22:51.914Z,86.90
2018-06-15T02:25:20.321Z,87.40
2018-06-15T02:27:48.744Z,87.50
2018-06-15T02:30:17.125Z,87.60
2018-06-15T02:32:45.672Z,87.80
2018-06-15T02:35:14.058Z,87.40
2018-06-15T02:37:42.464Z,87.60
2018-06-15T02:40:10.852Z,87.80
2018-06-15T02:42:39.264Z,87.80
2018-06-15T02:45:07.664Z,88.20
2018-06-15T02:47:36.078Z,88.40
2018-06-15T02:50:04.624Z,88.70
2018-06-15T02:52:33.122Z,88.70
2018-06-15T02:55:01.529Z,88.90
2018-06-15T02:57:30.053Z,88.80
2018-06-15T02:59:58.469Z,88.80
2018-06-15T03:02:26.885Z,88.70
2018-06-15T03:07:23.384Z,88.90
2018-06-15T03:09:51.805Z,89.40
2018-06-15T03:14:48.509Z,89.60
2018-06-15T03:17:16.934Z,89.60
2018-06-15T03:19:45.324Z,89.50
2018-06-15T03:24:41.820Z,89.40
2018-06-15T03:27:10.258Z,89.40
2018-06-15T03:29:38.657Z,89.20
2018-06-15T03:32:07.060Z,89.10
2018-06-15T03:34:35.492Z,88.90
2018-06-15T03:37:03.917Z,88.90
2018-06-15T03:39:32.353Z,88.70
2018-06-15T03:42:00.792Z,88.70
2018-06-15T03:44:29.412Z,88.70
2018-06-15T03:46:57.795Z,87.80
2018-06-15T03:49:26.230Z,87.50
2018-06-15T03:51:54.633Z,87.40
2018-06-15T03:54:23.072Z,87.20
2018-06-15T03:56:51.515Z,87.30
2018-06-15T03:59:19.929Z,87.40
2018-06-15T04:01:48.341Z,87.30
2018-06-15T04:04:16.765Z,87.20
2018-06-15T04:06:45.153Z,87.10
2018-06-15T04:09:13.621Z,87.10
2018-06-15T04:11:42.498Z,87.20
2018-06-15T04:14:10.955Z,87.10
2018-06-15T04:16:39.352Z,87.10
2018-06-15T04:19:07.792Z,87.00
2018-06-15T04:21:36.197Z,87.00
2018-06-15T04:24:04.625Z,87.20
2018-06-15T04:26:33.052Z,87.40
2018-06-15T04:29:01.481Z,87.50
2018-06-15T04:31:29.869Z,87.70
2018-06-15T04:33:58.294Z,87.80
2018-06-15T04:36:26.709Z,87.80
2018-06-15T04:38:55.117Z,87.80
2018-06-15T04:41:23.518Z,87.70
2018-06-15T04:43:52.079Z,87.20
2018-06-15T04:46:20.444Z,86.90
2018-06-15T04:48:48.847Z,86.70
2018-06-15T04:51:17.253Z,86.20
2018-06-15T04:53:45.674Z,85.60
2018-06-15T04:56:14.105Z,85.60
2018-06-15T04:58:42.512Z,85.60
2018-06-15T05:01:10.933Z,85.60
2018-06-15T05:03:39.364Z,86.00
2018-06-15T05:06:07.762Z,85.60
2018-06-15T05:08:36.185Z,85.30
2018-06-15T05:11:04.641Z,85.70
2018-06-15T05:13:33.153Z,85.70
2018-06-15T05:16:01.541Z,85.40
2018-06-15T05:18:29.977Z,84.90
2018-06-15T05:20:58.368Z,84.80
2018-06-15T05:23:26.814Z,84.60
2018-06-15T05:25:55.269Z,84.40
2018-06-15T05:28:23.649Z,84.60
2018-06-15T05:30:52.146Z,84.60
2018-06-15T05:33:20.526Z,84.50
2018-06-15T05:35:48.952Z,84.40
2018-06-15T05:38:17.373Z,84.50
2018-06-15T05:40:45.809Z,83.80
2018-06-15T05:43:14.234Z,83.80
2018-06-15T05:45:42.673Z,83.70
2018-06-15T05:48:11.052Z,83.20
2018-06-15T05:50:39.465Z,82.90
2018-06-15T05:53:07.863Z,82.90
2018-06-15T05:55:36.287Z,82.90
2018-06-15T05:58:04.728Z,82.80
2018-06-15T06:00:33.205Z,81.60
2018-06-15T06:03:01.606Z,80.80
2018-06-15T06:05:30.034Z,79.20
2018-06-15T06:07:58.424Z,78.70
2018-06-15T06:10:26.845Z,78.60
2018-06-15T06:12:55.277Z,78.30
2018-06-15T06:17:51.860Z,75.10
2018-06-15T06:20:20.304Z,73.50
2018-06-15T06:25:16.825Z,72.00
2018-06-15T06:27:45.241Z,70.10
2018-06-15T06:30:13.824Z,65.90
2018-06-15T06:32:42.264Z,64.90
2018-06-15T06:35:10.669Z,64.70
2018-06-15T06:37:39.064Z,61.50
2018-06-15T06:40:07.732Z,61.90
2018-06-15T06:42:36.145Z,61.10
2018-06-15T06:45:04.647Z,61.30
2018-06-15T06:47:33.078Z,61.60
2018-06-15T06:50:01.507Z,62.10
2018-06-15T06:52:29.921Z,62.10
2018-06-15T06:54:58.346Z,61.40
2018-06-15T06:57:26.837Z,60.50
2018-06-15T06:59:55.318Z,59.60
2018-06-15T07:02:23.716Z,57.90
2018-06-15T07:04:52.166Z,56.90
2018-06-15T07:07:20.574Z,57.70
2018-06-15T07:12:17.076Z,55.60
2018-06-15T07:14:45.512Z,54.90
2018-06-15T07:17:14.060Z,53.20
2018-06-15T07:19:42.465Z,53.30
2018-06-15T07:22:10.869Z,54.00
2018-06-15T07:24:39.244Z,53.90
2018-06-15T07:27:07.678Z,55.10
2018-06-15T07:29:36.088Z,55.80
2018-06-15T07:32:04.515Z,56.50
2018-06-15T07:34:33.025Z,56.20
2018-06-15T07:37:01.452Z,57.80
2018-06-15T07:39:29.893Z,58.20
2018-06-15T07:41:58.311Z,59.10
2018-06-15T07:44:26.694Z,59.20
2018-06-15T07:46:55.169Z,61.30
2018-06-15T07:49:23.581Z,61.60
2018-06-15T07:51:52.054Z,61.60
2018-06-15T07:54:20.440Z,62.80
2018-06-15T07:56:48.992Z,63.10
2018-06-15T07:59:17.396Z,63.90
2018-06-15T08:01:45.858Z,64.70
2018-06-15T08:06:42.544Z,65.50
2018-06-15T08:09:10.916Z,63.00
2018-06-15T08:11:39.324Z,63.00
2018-06-15T08:14:07.705Z,64.00
2018-06-15T08:16:36.149Z,63.20
2018-06-15T08:19:04.537Z,64.00
2018-06-15T08:21:33.037Z,63.00
2018-06-15T08:24:01.608Z,63.30
2018-06-15T08:26:30.013Z,64.40
2018-06-15T08:28:58.569Z,62.50
2018-06-15T08:31:26.969Z,62.90
2018-06-15T08:33:55.422Z,62.40
2018-06-15T08:36:23.848Z,61.30
2018-06-15T08:38:52.289Z,62.10
2018-06-15T08:41:20.707Z,62.70
2018-06-15T08:43:49.086Z,59.80
2018-06-15T08:46:17.560Z,52.50
2018-06-15T08:48:45.952Z,51.50
2018-06-15T08:51:14.461Z,53.20
2018-06-15T08:53:42.856Z,51.60
2018-06-15T08:56:11.273Z,52.30
2018-06-15T08:58:39.657Z,52.20
2018-06-15T09:01:08.094Z,55.70
2018-06-15T09:03:36.499Z,51.70
2018-06-15T09:06:04.942Z,51.50
2018-06-15T09:08:33.320Z,51.00
2018-06-15T09:11:01.700Z,49.90
2018-06-15T09:13:30.136Z,48.70
2018-06-15T09:15:58.525Z,48.70
2018-06-15T09:18:26.965Z,48.00
2018-06-15T09:20:55.438Z,48.90
2018-06-15T09:23:23.888Z,51.90
2018-06-15T09:25:53.621Z,51.60
2018-06-15T09:28:22.286Z,49.70
2018-06-15T09:30:51.041Z,49.20
2018-06-15T09:33:19.453Z,50.00
2018-06-15T09:35:48.497Z,49.20
2018-06-15T09:38:16.898Z,50.10
2018-06-15T09:40:45.284Z,51.00
2018-06-15T09:43:13.796Z,49.70
2018-06-15T09:45:42.198Z,50.40
2018-06-15T09:48:10.621Z,50.10
2018-06-15T09:50:39.032Z,51.40
2018-06-15T09:53:07.456Z,51.50
2018-06-15T09:55:35.904Z,50.70
2018-06-15T09:58:04.317Z,49.60
2018-06-15T10:00:38.046Z,48.80
2018-06-15T10:03:06.468Z,48.90
2018-06-15T10:05:34.884Z,50.10
2018-06-15T10:08:03.325Z,49.90
2018-06-15T10:10:31.747Z,49.10
2018-06-15T10:13:00.168Z,49.10
2018-06-15T10:15:28.576Z,48.50
2018-06-15T10:17:57.025Z,48.90
2018-06-15T10:20:25.410Z,48.70
2018-06-15T10:22:53.940Z,48.20
2018-06-15T10:25:22.332Z,47.90
2018-06-15T10:27:50.864Z,49.00
2018-06-15T10:30:19.280Z,49.80
2018-06-15T10:32:47.725Z,49.50
2018-06-15T10:35:16.157Z,49.10
2018-06-15T10:37:44.573Z,48.20
2018-06-15T10:40:12.975Z,47.90
2018-06-15T10:42:41.526Z,48.90
2018-06-15T10:50:06.089Z,48.20
2018-06-15T10:52:34.516Z,49.10
2018-06-15T10:55:02.921Z,50.20
2018-06-15T10:59:59.629Z,52.90
2018-06-15T11:02:28.099Z,54.80
2018-06-15T11:04:56.529Z,55.30
2018-06-15T11:07:24.930Z,57.60
2018-06-15T11:09:53.357Z,58.30
2018-06-15T11:12:21.761Z,58.70
2018-06-15T11:14:50.421Z,58.90
2018-06-15T11:17:18.805Z,58.70
2018-06-15T11:19:47.255Z,60.00
2018-06-15T11:22:15.666Z,60.50
2018-06-15T11:24:44.189Z,60.50
2018-06-15T11:27:12.636Z,60.80
2018-06-15T11:29:41.072Z,61.40
2018-06-15T11:34:37.568Z,62.90
2018-06-15T11:37:05.977Z,62.00
2018-06-15T11:39:34.397Z,61.70
2018-06-15T11:42:02.801Z,61.80
2018-06-15T11:44:31.221Z,61.90
2018-06-15T11:46:59.645Z,62.10
2018-06-15T11:49:28.065Z,61.60
2018-06-15T11:51:56.464Z,61.50
2018-06-15T11:54:24.888Z,61.60
2018-06-15T11:56:53.287Z,62.10
2018-06-15T11:59:21.696Z,62.50
2018-06-15T12:01:50.154Z,61.90
2018-06-15T12:04:18.549Z,63.70
2018-06-15T12:06:46.934Z,62.80
2018-06-15T12:09:15.416Z,62.10
2018-06-15T12:11:43.880Z,61.80
2018-06-15T12:14:12.308Z,62.10
2018-06-15T12:16:40.709Z,62.90
2018-06-15T12:19:09.109Z,62.60
2018-06-15T12:21:37.687Z,63.50
2018-06-15T12:24:06.221Z,62.90
2018-06-15T12:26:34.762Z,62.70
2018-06-15T12:29:03.155Z,62.30
2018-06-15T12:31:31.585Z,62.30
2018-06-15T12:34:00.014Z,62.40
2018-06-15T12:36:28.612Z,62.60
2018-06-15T12:38:57.085Z,63.40
2018-06-15T12:41:25.513Z,63.10
2018-06-15T12:43:53.908Z,62.80
2018-06-15T12:46:22.478Z,62.90
2018-06-15T12:48:50.879Z,62.90
2018-06-15T12:51:19.327Z,63.40
2018-06-15T12:53:47.716Z,63.30
2018-06-15T12:56:16.177Z,63.40
2018-06-15T12:58:44.581Z,63.40
2018-06-15T13:01:13.009Z,64.20
2018-06-15T13:06:09.508Z,63.80
2018-06-15T13:08:37.970Z,63.90
2018-06-15T13:11:06.392Z,62.70
2018-06-15T13:13:34.835Z,62.40
2018-06-15T13:16:03.334Z,62.50
2018-06-15T13:18:31.729Z,62.80
2018-06-15T13:21:00.158Z,62.80
2018-06-15T13:23:28.540Z,63.10
2018-06-15T13:25:57.083Z,62.70
2018-06-15T13:28:25.565Z,62.00
2018-06-15T13:30:54.012Z,62.80
2018-06-15T13:33:22.437Z,63.80
2018-06-15T13:35:50.916Z,63.20
2018-06-15T13:38:19.332Z,62.80
2018-06-15T13:40:47.791Z,62.60
2018-06-15T13:43:16.186Z,62.70
2018-06-15T13:45:44.596Z,62.30
2018-06-15T13:48:12.976Z,63.90
2018-06-15T13:50:41.389Z,64.00
2018-06-15T13:53:09.768Z,62.90
2018-06-15T13:55:38.237Z,64.00
2018-06-15T13:58:06.638Z,64.90
2018-06-15T14:00:35.087Z,64.30
2018-06-15T14:03:03.522Z,64.40
2018-06-15T14:05:31.989Z,64.40
2018-06-15T14:08:00.376Z,64.10
2018-06-15T14:10:28.805Z,63.90
2018-06-15T14:12:57.213Z,62.70
2018-06-15T14:15:25.817Z,62.30
2018-06-15T14:17:54.249Z,61.80
2018-06-15T14:20:22.645Z,62.00
2018-06-15T14:22:51.076Z,62.40
2018-06-15T14:25:19.505Z,63.80
2018-06-15T14:27:47.943Z,62.80
2018-06-15T14:30:16.377Z,62.10
2018-06-15T14:32:44.836Z,64.10
2018-06-15T14:35:13.236Z,63.40
2018-06-15T14:37:41.838Z,63.00
2018-06-15T14:40:10.390Z,63.40
2018-06-15T14:42:38.813Z,63.40
2018-06-15T14:45:07.444Z,63.30
2018-06-15T14:50:04.174Z,63.10
2018-06-15T14:52:32.676Z,63.00
2018-06-15T14:57:29.204Z,63.10
2018-06-15T14:59:57.705Z,63.10
2018-06-15T15:02:26.124Z,63.10
2018-06-15T15:04:54.579Z,63.10
2018-06-15T15:07:22.997Z,63.90
2018-06-15T15:09:51.441Z,63.80
2018-06-15T15:12:19.870Z,64.40
2018-06-15T15:14:48.292Z,63.30
2018-06-15T15:17:16.766Z,63.90
2018-06-15T15:19:45.466Z,63.90
2018-06-15T15:22:13.905Z,64.30
2018-06-15T15:24:42.329Z,64.20
2018-06-15T15:27:10.779Z,64.00
2018-06-15T15:29:39.184Z,64.10
2018-06-15T15:32:07.601Z,64.50
2018-06-15T15:34:36.045Z,63.40
2018-06-15T15:37:04.533Z,63.70
2018-06-15T15:39:32.912Z,64.10
2018-06-15T15:42:01.325Z,66.00
2018-06-15T15:44:29.796Z,64.70
2018-06-15T15:46:58.250Z,64.50
2018-06-15T15:49:26.652Z,64.40
2018-06-15T15:51:55.077Z,64.10
2018-06-15T15:54:23.457Z,64.20
2018-06-15T15:56:51.909Z,63.10
2018-06-15T15:59:20.307Z,63.70
2018-06-15T16:01:48.753Z,64.00
2018-06-15T16:04:17.184Z,64.00
2018-06-15T16:06:45.624Z,65.30
2018-06-15T16:09:14.108Z,64.90
2018-06-15T16:11:42.553Z,65.30
2018-06-15T16:14:10.977Z,65.60
2018-06-15T16:16:39.403Z,64.90
2018-06-15T16:19:07.830Z,64.90
2018-06-15T16:21:36.213Z,65.40
2018-06-15T16:24:04.654Z,65.40
2018-06-15T16:26:33.045Z,65.30
2018-06-15T16:29:01.478Z,65.60
2018-06-15T16:33:58.077Z,64.60
2018-06-15T16:36:26.592Z,64.80
2018-06-15T16:38:55.022Z,65.80
2018-06-15T16:41:23.444Z,65.70
2018-06-15T16:43:51.961Z,64.90
2018-06-15T16:46:20.366Z,65.20
2018-06-15T16:48:48.760Z,65.40
2018-06-15T16:51:17.228Z,65.40
2018-06-15T16:53:45.648Z,65.10
2018-06-15T16:56:14.060Z,65.20
2018-06-15T16:58:42.472Z,65.30
2018-06-15T17:01:10.901Z,65.10
2018-06-15T17:03:39.361Z,65.10
2018-06-15T17:06:07.769Z,65.50
2018-06-15T17:08:36.195Z,66.00
2018-06-15T17:11:04.617Z,65.70
2018-06-15T17:13:33.050Z,65.70
2018-06-15T17:16:01.441Z,65.50
2018-06-15T17:18:29.881Z,65.60
2018-06-15T17:20:58.366Z,65.40
2018-06-15T17:23:26.805Z,65.40
2018-06-15T17:25:55.186Z,65.40
2018-06-15T17:28:23.630Z,66.00
2018-06-15T17:30:52.048Z,66.00
2018-06-15T17:33:20.432Z,66.30
2018-06-15T17:35:48.837Z,65.50
2018-06-15T17:38:17.574Z,65.60
2018-06-15T17:40:45.973Z,66.10
2018-06-15T17:43:14.382Z,66.70
2018-06-15T17:45:42.797Z,66.20
2018-06-15T17:50:39.492Z,66.00
2018-06-15T17:53:07.948Z,66.50
2018-06-15T17:55:36.431Z,66.20
2018-06-15T17:58:05.746Z,66.70
2018-06-15T18:00:34.216Z,66.70
2018-06-15T18:03:02.653Z,66.90
2018-06-15T18:05:31.109Z,67.10
2018-06-15T18:07:59.596Z,67.20
2018-06-15T18:10:28.335Z,67.10
2018-06-15T18:12:56.752Z,67.30
2018-06-15T18:15:25.196Z,67.30
2018-06-15T18:17:53.605Z,67.40
2018-06-15T18:20:22.075Z,67.30
2018-06-15T18:22:50.545Z,68.20
2018-06-15T18:25:19.117Z,68.40
2018-06-15T18:30:15.640Z,68.50
2018-06-15T18:32:44.067Z,68.90
2018-06-15T18:35:12.519Z,69.20
2018-06-15T18:37:40.936Z,69.20
2018-06-15T18:40:09.382Z,70.30
2018-06-15T18:42:37.809Z,69.80
2018-06-15T18:45:06.414Z,70.10
2018-06-15T18:47:34.897Z,70.60
2018-06-15T18:50:03.464Z,71.00
2018-06-15T18:52:32.095Z,71.60
2018-06-15T18:55:00.613Z,71.50
2018-06-15T18:57:29.187Z,72.00
2018-06-15T18:59:57.712Z,71.80
2018-06-15T19:02:26.241Z,72.00
2018-06-15T19:04:54.736Z,72.30
2018-06-15T19:07:23.307Z,73.00
2018-06-15T19:09:51.735Z,73.30
2018-06-15T19:12:20.301Z,73.90
2018-06-15T19:14:48.772Z,74.10
2018-06-15T19:17:17.356Z,74.30
2018-06-15T19:19:45.887Z,74.40
2018-06-15T19:22:14.456Z,74.40
2018-06-15T19:24:42.897Z,74.60
2018-06-15T19:27:11.341Z,74.50
2018-06-15T19:29:39.749Z,74.90
2018-06-15T19:32:08.203Z,75.30
2018-06-15T19:34:36.959Z,75.30
2018-06-15T19:37:05.394Z,75.10
2018-06-15T19:39:33.912Z,74.90
2018-06-15T19:42:02.437Z,75.20
2018-06-15T19:44:30.856Z,75.70
2018-06-15T19:46:59.369Z,75.80
2018-06-15T19:49:27.767Z,76.20
2018-06-15T19:54:24.303Z,76.60
2018-06-15T19:56:53.006Z,77.00
2018-06-15T19:59:21.452Z,77.10
2018-06-15T20:01:49.928Z,77.60
2018-06-15T20:04:18.373Z,77.70
2018-06-15T20:06:46.902Z,78.10
2018-06-15T20:09:15.320Z,78.20
2018-06-15T20:11:43.733Z,78.40
2018-06-15T20:16:40.380Z,78.90
2018-06-15T20:19:09.234Z,79.00
2018-06-15T20:21:37.649Z,79.20
2018-06-15T20:24:06.085Z,79.00
2018-06-15T20:26:34.500Z,79.20
2018-06-15T20:29:02.935Z,79.00
2018-06-15T20:31:31.342Z,79.10
2018-06-15T20:33:59.774Z,79.10
2018-06-15T20:36:28.163Z,79.10
2018-06-15T20:38:56.584Z,79.20
2018-06-15T20:41:24.999Z,79.20
2018-06-15T20:43:53.453Z,79.50
2018-06-15T20:46:21.905Z,79.40
2018-06-15T20:48:50.351Z,79.80
2018-06-15T20:51:18.824Z,80.10
2018-06-15T20:53:47.249Z,80.30
2018-06-15T20:56:15.657Z,80.50
2018-06-15T20:58:44.096Z,80.50
2018-06-15T21:01:12.546Z,80.60
2018-06-15T21:03:41.341Z,80.80
2018-06-15T21:06:09.781Z,80.90
2018-06-15T21:08:38.220Z,80.90
2018-06-15T21:11:06.680Z,81.00
2018-06-15T21:13:35.072Z,81.30
2018-06-15T21:16:03.553Z,81.40
2018-06-15T21:18:31.965Z,81.40
2018-06-15T21:21:00.462Z,81.60
2018-06-15T21:23:28.891Z,81.70
2018-06-15T21:25:57.329Z,81.70
2018-06-15T21:28:25.739Z,81.90
2018-06-15T21:30:54.179Z,81.90
2018-06-15T21:33:22.568Z,82.00
2018-06-15T21:35:55.258Z,82.00
2018-06-15T21:38:23.661Z,82.00
2018-06-15T21:40:52.093Z,82.00
2018-06-15T21:43:20.569Z,82.00
2018-06-15T21:45:49.039Z,82.10
2018-06-15T21:48:17.427Z,82.10
2018-06-15T21:50:45.860Z,82.30
2018-06-15T21:53:14.258Z,82.40
2018-06-15T21:55:42.700Z,82.60
2018-06-15T21:58:11.124Z,82.70
2018-06-15T22:00:43.915Z,82.70
2018-06-15T22:03:12.308Z,82.70
2018-06-15T22:05:40.824Z,82.70
2018-06-15T22:10:37.348Z,82.80
2018-06-15T22:13:05.886Z,82.90
2018-06-15T22:15:34.316Z,82.90
2018-06-15T22:18:02.747Z,82.80
2018-06-15T22:20:31.164Z,82.70
2018-06-15T22:22:59.609Z,82.90
2018-06-15T22:25:28.029Z,82.80
2018-06-15T22:27:56.433Z,82.90
2018-06-15T22:30:24.868Z,82.80
2018-06-15T22:32:53.303Z,82.90
2018-06-15T22:35:21.777Z,83.10
2018-06-15T22:37:50.184Z,83.20
2018-06-15T22:40:18.628Z,83.30
2018-06-15T22:42:47.033Z,83.30
2018-06-15T22:45:15.501Z,83.50
2018-06-15T22:47:43.911Z,83.50
2018-06-15T22:50:12.323Z,83.50
2018-06-15T22:52:40.801Z,83.80
2018-06-15T22:55:09.217Z,83.70
2018-06-15T22:57:37.653Z,83.50
2018-06-15T23:00:06.441Z,83.50
2018-06-15T23:02:34.873Z,83.30
2018-06-15T23:05:03.348Z,83.30
2018-06-15T23:07:31.812Z,83.30
2018-06-15T23:10:00.317Z,83.30
2018-06-15T23:14:56.940Z,83.10
2018-06-15T23:17:25.429Z,83.00
2018-06-15T23:19:53.845Z,83.00
2018-06-15T23:22:22.292Z,83.30
2018-06-15T23:24:50.727Z,83.50
2018-06-15T23:27:19.249Z,83.70
2018-06-15T23:29:47.686Z,83.80
2018-06-15T23:32:16.172Z,83.90
2018-06-15T23:34:44.551Z,83.80
2018-06-15T23:37:12.996Z,83.70
2018-06-15T23:39:41.484Z,83.50
2018-06-15T23:42:09.916Z,83.70
2018-06-15T23:44:38.323Z,83.70
2018-06-15T23:47:06.752Z,83.70
2018-06-15T23:49:35.153Z,83.50
2018-06-15T23:52:03.597Z,83.80
2018-06-15T23:54:31.991Z,84.10
2018-06-15T23:57:00.445Z,84.00
2018-06-15T23:59:28.856Z,83.70
